sensor_id;sensor_type;location;lat;lon;timestamp;P1;durP1;ratioP1;P2;durP2;ratioP2
15063;SDS011;7631;52.088;5.088;2024-01-06T00:00:19;8.70;;;6.87;;
15063;SDS011;7631;52.088;5.088;2024-01-06T00:02:46;8.43;;;7.10;;
15063;SDS011;7631;52.088;5.088;2024-01-06T00:05:11;7.27;;;6.50;;
15063;SDS011;7631;52.088;5.088;2024-01-06T00:07:36;7.90;;;6.93;;
15063;SDS011;7631;52.088;5.088;2024-01-06T00:10:02;8.63;;;7.27;;
15063;SDS011;7631;52.088;5.088;2024-01-06T00:12:27;8.50;;;7.37;;
15063;SDS011;7631;52.088;5.088;2024-01-06T00:14:52;7.63;;;6.73;;
15063;SDS011;7631;52.088;5.088;2024-01-06T00:17:17;9.33;;;7.57;;
15063;SDS011;7631;52.088;5.088;2024-01-06T00:19:43;7.47;;;6.77;;
15063;SDS011;7631;52.088;5.088;2024-01-06T00:22:08;8.20;;;6.80;;
15063;SDS011;7631;52.088;5.088;2024-01-06T00:24:33;7.67;;;6.87;;
15063;SDS011;7631;52.088;5.088;2024-01-06T00:26:58;7.70;;;6.73;;
15063;SDS011;7631;52.088;5.088;2024-01-06T00:29:24;8.33;;;7.43;;
15063;SDS011;7631;52.088;5.088;2024-01-06T00:31:49;8.73;;;7.33;;
15063;SDS011;7631;52.088;5.088;2024-01-06T00:34:14;9.33;;;7.30;;
15063;SDS011;7631;52.088;5.088;2024-01-06T00:36:39;7.87;;;6.47;;
15063;SDS011;7631;52.088;5.088;2024-01-06T00:39:04;7.03;;;6.33;;
15063;SDS011;7631;52.088;5.088;2024-01-06T00:41:30;7.20;;;6.23;;
15063;SDS011;7631;52.088;5.088;2024-01-06T00:43:55;7.10;;;6.00;;
15063;SDS011;7631;52.088;5.088;2024-01-06T00:46:20;7.53;;;6.33;;
15063;SDS011;7631;52.088;5.088;2024-01-06T00:48:45;8.20;;;6.73;;
15063;SDS011;7631;52.088;5.088;2024-01-06T00:51:10;7.07;;;6.37;;
15063;SDS011;7631;52.088;5.088;2024-01-06T00:53:35;7.57;;;6.77;;
15063;SDS011;7631;52.088;5.088;2024-01-06T00:56:01;7.87;;;6.63;;
15063;SDS011;7631;52.088;5.088;2024-01-06T00:58:26;8.53;;;6.73;;
15063;SDS011;7631;52.088;5.088;2024-01-06T01:00:51;8.03;;;6.73;;
15063;SDS011;7631;52.088;5.088;2024-01-06T01:03:16;7.07;;;5.93;;
15063;SDS011;7631;52.088;5.088;2024-01-06T01:05:42;6.37;;;5.73;;
15063;SDS011;7631;52.088;5.088;2024-01-06T01:08:07;6.50;;;5.90;;
15063;SDS011;7631;52.088;5.088;2024-01-06T01:10:32;6.70;;;6.00;;
15063;SDS011;7631;52.088;5.088;2024-01-06T01:12:57;6.70;;;6.00;;
15063;SDS011;7631;52.088;5.088;2024-01-06T01:15:23;6.27;;;5.67;;
15063;SDS011;7631;52.088;5.088;2024-01-06T01:17:48;5.97;;;5.37;;
15063;SDS011;7631;52.088;5.088;2024-01-06T01:20:13;6.67;;;5.47;;
15063;SDS011;7631;52.088;5.088;2024-01-06T01:22:38;5.50;;;5.00;;
15063;SDS011;7631;52.088;5.088;2024-01-06T01:25:03;6.90;;;5.43;;
15063;SDS011;7631;52.088;5.088;2024-01-06T01:27:32;5.70;;;4.90;;
15063;SDS011;7631;52.088;5.088;2024-01-06T01:29:58;5.60;;;4.97;;
15063;SDS011;7631;52.088;5.088;2024-01-06T01:32:23;5.17;;;4.67;;
15063;SDS011;7631;52.088;5.088;2024-01-06T01:34:48;5.70;;;5.10;;
15063;SDS011;7631;52.088;5.088;2024-01-06T01:37:13;5.87;;;5.23;;
15063;SDS011;7631;52.088;5.088;2024-01-06T01:39:38;5.60;;;4.77;;
15063;SDS011;7631;52.088;5.088;2024-01-06T01:42:04;5.60;;;5.00;;
15063;SDS011;7631;52.088;5.088;2024-01-06T01:44:29;5.60;;;4.90;;
15063;SDS011;7631;52.088;5.088;2024-01-06T01:46:54;6.47;;;4.63;;
15063;SDS011;7631;52.088;5.088;2024-01-06T01:49:19;5.30;;;4.80;;
15063;SDS011;7631;52.088;5.088;2024-01-06T01:51:45;5.33;;;4.70;;
15063;SDS011;7631;52.088;5.088;2024-01-06T01:54:11;5.77;;;5.17;;
15063;SDS011;7631;52.088;5.088;2024-01-06T01:56:36;5.53;;;4.53;;
15063;SDS011;7631;52.088;5.088;2024-01-06T01:59:04;4.90;;;4.40;;
15063;SDS011;7631;52.088;5.088;2024-01-06T02:01:30;5.13;;;4.50;;
15063;SDS011;7631;52.088;5.088;2024-01-06T02:03:55;4.63;;;4.23;;
15063;SDS011;7631;52.088;5.088;2024-01-06T02:06:21;4.80;;;4.30;;
15063;SDS011;7631;52.088;5.088;2024-01-06T02:08:46;4.70;;;4.30;;
15063;SDS011;7631;52.088;5.088;2024-01-06T02:11:11;4.93;;;4.27;;
15063;SDS011;7631;52.088;5.088;2024-01-06T02:13:37;5.03;;;4.50;;
15063;SDS011;7631;52.088;5.088;2024-01-06T02:16:02;6.40;;;4.27;;
15063;SDS011;7631;52.088;5.088;2024-01-06T02:18:28;4.93;;;4.43;;
15063;SDS011;7631;52.088;5.088;2024-01-06T02:20:53;5.23;;;4.30;;
15063;SDS011;7631;52.088;5.088;2024-01-06T02:23:21;6.53;;;4.10;;
15063;SDS011;7631;52.088;5.088;2024-01-06T02:25:46;4.63;;;3.97;;
15063;SDS011;7631;52.088;5.088;2024-01-06T02:28:11;5.10;;;4.60;;
15063;SDS011;7631;52.088;5.088;2024-01-06T02:30:36;4.97;;;4.20;;
15063;SDS011;7631;52.088;5.088;2024-01-06T02:33:01;4.53;;;4.13;;
15063;SDS011;7631;52.088;5.088;2024-01-06T02:35:27;4.60;;;4.10;;
15063;SDS011;7631;52.088;5.088;2024-01-06T02:37:52;5.20;;;4.70;;
15063;SDS011;7631;52.088;5.088;2024-01-06T02:40:17;6.13;;;3.97;;
15063;SDS011;7631;52.088;5.088;2024-01-06T02:42:42;4.53;;;4.00;;
15063;SDS011;7631;52.088;5.088;2024-01-06T02:45:08;4.40;;;3.80;;
15063;SDS011;7631;52.088;5.088;2024-01-06T02:47:34;5.23;;;3.90;;
15063;SDS011;7631;52.088;5.088;2024-01-06T02:49:59;4.63;;;3.80;;
15063;SDS011;7631;52.088;5.088;2024-01-06T02:52:25;3.90;;;3.50;;
15063;SDS011;7631;52.088;5.088;2024-01-06T02:54:50;5.33;;;4.83;;
15063;SDS011;7631;52.088;5.088;2024-01-06T02:57:15;3.93;;;3.60;;
15063;SDS011;7631;52.088;5.088;2024-01-06T02:59:40;4.10;;;3.70;;
15063;SDS011;7631;52.088;5.088;2024-01-06T03:02:06;4.30;;;3.90;;
15063;SDS011;7631;52.088;5.088;2024-01-06T03:04:31;4.10;;;3.70;;
15063;SDS011;7631;52.088;5.088;2024-01-06T03:06:56;3.93;;;3.63;;
15063;SDS011;7631;52.088;5.088;2024-01-06T03:09:21;4.17;;;3.77;;
15063;SDS011;7631;52.088;5.088;2024-01-06T03:11:47;3.80;;;3.50;;
15063;SDS011;7631;52.088;5.088;2024-01-06T03:14:12;4.33;;;3.40;;
15063;SDS011;7631;52.088;5.088;2024-01-06T03:16:37;4.20;;;3.80;;
15063;SDS011;7631;52.088;5.088;2024-01-06T03:19:02;3.77;;;3.47;;
15063;SDS011;7631;52.088;5.088;2024-01-06T03:21:28;4.03;;;3.67;;
15063;SDS011;7631;52.088;5.088;2024-01-06T03:23:53;4.50;;;3.70;;
15063;SDS011;7631;52.088;5.088;2024-01-06T03:26:20;3.83;;;3.37;;
15063;SDS011;7631;52.088;5.088;2024-01-06T03:28:45;3.90;;;3.33;;
15063;SDS011;7631;52.088;5.088;2024-01-06T03:31:10;3.87;;;3.57;;
15063;SDS011;7631;52.088;5.088;2024-01-06T03:33:35;4.13;;;3.10;;
15063;SDS011;7631;52.088;5.088;2024-01-06T03:36:07;3.37;;;3.07;;
15063;SDS011;7631;52.088;5.088;2024-01-06T03:38:32;3.80;;;3.43;;
15063;SDS011;7631;52.088;5.088;2024-01-06T03:40:58;4.20;;;3.80;;
15063;SDS011;7631;52.088;5.088;2024-01-06T03:43:23;3.37;;;3.07;;
15063;SDS011;7631;52.088;5.088;2024-01-06T03:45:48;3.87;;;3.57;;
15063;SDS011;7631;52.088;5.088;2024-01-06T03:48:13;3.93;;;3.63;;
15063;SDS011;7631;52.088;5.088;2024-01-06T03:50:38;4.20;;;3.30;;
15063;SDS011;7631;52.088;5.088;2024-01-06T03:53:04;4.07;;;3.57;;
15063;SDS011;7631;52.088;5.088;2024-01-06T03:55:29;4.77;;;4.00;;
15063;SDS011;7631;52.088;5.088;2024-01-06T03:57:54;3.70;;;3.40;;
15063;SDS011;7631;52.088;5.088;2024-01-06T04:00:20;4.17;;;3.70;;
15063;SDS011;7631;52.088;5.088;2024-01-06T04:02:45;4.43;;;3.90;;
15063;SDS011;7631;52.088;5.088;2024-01-06T04:05:10;4.20;;;3.80;;
15063;SDS011;7631;52.088;5.088;2024-01-06T04:07:35;4.07;;;3.67;;
15063;SDS011;7631;52.088;5.088;2024-01-06T04:10:00;4.30;;;3.53;;
15063;SDS011;7631;52.088;5.088;2024-01-06T04:12:25;4.20;;;3.80;;
15063;SDS011;7631;52.088;5.088;2024-01-06T04:14:51;3.80;;;3.50;;
15063;SDS011;7631;52.088;5.088;2024-01-06T04:17:16;4.20;;;3.80;;
15063;SDS011;7631;52.088;5.088;2024-01-06T04:19:41;4.60;;;3.67;;
15063;SDS011;7631;52.088;5.088;2024-01-06T04:22:07;4.30;;;3.90;;
15063;SDS011;7631;52.088;5.088;2024-01-06T04:24:32;6.03;;;4.03;;
15063;SDS011;7631;52.088;5.088;2024-01-06T04:27:02;4.80;;;4.20;;
15063;SDS011;7631;52.088;5.088;2024-01-06T04:29:28;4.20;;;3.60;;
15063;SDS011;7631;52.088;5.088;2024-01-06T04:31:53;4.37;;;3.97;;
15063;SDS011;7631;52.088;5.088;2024-01-06T04:34:18;4.57;;;3.97;;
15063;SDS011;7631;52.088;5.088;2024-01-06T04:36:43;4.50;;;4.10;;
15063;SDS011;7631;52.088;5.088;2024-01-06T04:39:09;5.50;;;4.47;;
15063;SDS011;7631;52.088;5.088;2024-01-06T04:41:34;5.70;;;4.10;;
15063;SDS011;7631;52.088;5.088;2024-01-06T04:43:59;4.40;;;4.00;;
15063;SDS011;7631;52.088;5.088;2024-01-06T04:46:24;4.30;;;3.90;;
15063;SDS011;7631;52.088;5.088;2024-01-06T04:48:50;4.23;;;3.83;;
15063;SDS011;7631;52.088;5.088;2024-01-06T04:51:15;4.93;;;4.17;;
15063;SDS011;7631;52.088;5.088;2024-01-06T04:53:40;4.60;;;3.93;;
15063;SDS011;7631;52.088;5.088;2024-01-06T04:56:06;4.83;;;4.10;;
15063;SDS011;7631;52.088;5.088;2024-01-06T04:58:31;4.07;;;3.67;;
15063;SDS011;7631;52.088;5.088;2024-01-06T05:00:56;5.10;;;4.60;;
15063;SDS011;7631;52.088;5.088;2024-01-06T05:03:21;5.33;;;4.47;;
15063;SDS011;7631;52.088;5.088;2024-01-06T05:05:47;4.30;;;3.90;;
15063;SDS011;7631;52.088;5.088;2024-01-06T05:08:12;5.43;;;4.30;;
15063;SDS011;7631;52.088;5.088;2024-01-06T05:10:37;4.80;;;4.10;;
15063;SDS011;7631;52.088;5.088;2024-01-06T05:13:02;4.37;;;3.97;;
15063;SDS011;7631;52.088;5.088;2024-01-06T05:15:28;7.07;;;3.73;;
15063;SDS011;7631;52.088;5.088;2024-01-06T05:17:53;4.40;;;4.00;;
15063;SDS011;7631;52.088;5.088;2024-01-06T05:20:18;5.80;;;4.50;;
15063;SDS011;7631;52.088;5.088;2024-01-06T05:22:43;4.70;;;4.17;;
15063;SDS011;7631;52.088;5.088;2024-01-06T05:25:08;4.63;;;3.87;;
15063;SDS011;7631;52.088;5.088;2024-01-06T05:27:34;4.27;;;3.53;;
15063;SDS011;7631;52.088;5.088;2024-01-06T05:29:59;5.30;;;3.60;;
15063;SDS011;7631;52.088;5.088;2024-01-06T05:32:24;4.17;;;3.77;;
15063;SDS011;7631;52.088;5.088;2024-01-06T05:34:50;4.43;;;3.57;;
15063;SDS011;7631;52.088;5.088;2024-01-06T05:37:15;4.63;;;4.23;;
15063;SDS011;7631;52.088;5.088;2024-01-06T05:39:40;5.20;;;4.20;;
15063;SDS011;7631;52.088;5.088;2024-01-06T05:42:06;3.93;;;3.50;;
15063;SDS011;7631;52.088;5.088;2024-01-06T05:44:31;3.90;;;3.43;;
15063;SDS011;7631;52.088;5.088;2024-01-06T05:46:56;3.90;;;3.50;;
15063;SDS011;7631;52.088;5.088;2024-01-06T05:49:21;4.63;;;3.90;;
15063;SDS011;7631;52.088;5.088;2024-01-06T05:51:47;4.53;;;3.60;;
15063;SDS011;7631;52.088;5.088;2024-01-06T05:54:12;3.93;;;3.30;;
15063;SDS011;7631;52.088;5.088;2024-01-06T05:56:38;4.33;;;3.73;;
15063;SDS011;7631;52.088;5.088;2024-01-06T05:59:03;3.67;;;3.33;;
15063;SDS011;7631;52.088;5.088;2024-01-06T06:01:28;4.20;;;3.80;;
15063;SDS011;7631;52.088;5.088;2024-01-06T06:03:53;3.57;;;2.97;;
15063;SDS011;7631;52.088;5.088;2024-01-06T06:06:18;3.30;;;3.00;;
15063;SDS011;7631;52.088;5.088;2024-01-06T06:08:45;3.60;;;3.27;;
15063;SDS011;7631;52.088;5.088;2024-01-06T06:11:10;4.57;;;3.63;;
15063;SDS011;7631;52.088;5.088;2024-01-06T06:13:39;4.00;;;2.90;;
15063;SDS011;7631;52.088;5.088;2024-01-06T06:16:05;3.30;;;2.87;;
15063;SDS011;7631;52.088;5.088;2024-01-06T06:18:31;3.17;;;2.87;;
15063;SDS011;7631;52.088;5.088;2024-01-06T06:20:56;3.50;;;3.20;;
15063;SDS011;7631;52.088;5.088;2024-01-06T06:23:21;3.97;;;3.50;;
15063;SDS011;7631;52.088;5.088;2024-01-06T06:25:46;4.13;;;3.20;;
15063;SDS011;7631;52.088;5.088;2024-01-06T06:28:12;3.60;;;3.30;;
15063;SDS011;7631;52.088;5.088;2024-01-06T06:30:37;3.60;;;3.30;;
15063;SDS011;7631;52.088;5.088;2024-01-06T06:33:02;4.43;;;3.43;;
15063;SDS011;7631;52.088;5.088;2024-01-06T06:35:28;4.73;;;3.50;;
15063;SDS011;7631;52.088;5.088;2024-01-06T06:37:53;5.10;;;3.43;;
15063;SDS011;7631;52.088;5.088;2024-01-06T06:40:18;3.27;;;2.97;;
15063;SDS011;7631;52.088;5.088;2024-01-06T06:42:44;4.07;;;3.07;;
15063;SDS011;7631;52.088;5.088;2024-01-06T06:45:09;3.73;;;3.30;;
15063;SDS011;7631;52.088;5.088;2024-01-06T06:47:36;3.77;;;3.00;;
15063;SDS011;7631;52.088;5.088;2024-01-06T06:50:02;3.40;;;3.10;;
15063;SDS011;7631;52.088;5.088;2024-01-06T06:52:27;4.93;;;3.00;;
15063;SDS011;7631;52.088;5.088;2024-01-06T06:54:52;3.30;;;3.00;;
15063;SDS011;7631;52.088;5.088;2024-01-06T06:57:18;2.93;;;2.50;;
15063;SDS011;7631;52.088;5.088;2024-01-06T06:59:43;3.80;;;3.37;;
15063;SDS011;7631;52.088;5.088;2024-01-06T07:02:08;4.00;;;2.90;;
15063;SDS011;7631;52.088;5.088;2024-01-06T07:04:34;5.73;;;3.17;;
15063;SDS011;7631;52.088;5.088;2024-01-06T07:06:59;3.70;;;3.03;;
15063;SDS011;7631;52.088;5.088;2024-01-06T07:09:24;3.90;;;3.50;;
15063;SDS011;7631;52.088;5.088;2024-01-06T07:11:50;3.37;;;3.00;;
15063;SDS011;7631;52.088;5.088;2024-01-06T07:14:15;3.97;;;3.57;;
15063;SDS011;7631;52.088;5.088;2024-01-06T07:16:40;3.37;;;3.00;;
15063;SDS011;7631;52.088;5.088;2024-01-06T07:19:05;3.43;;;3.13;;
15063;SDS011;7631;52.088;5.088;2024-01-06T07:21:30;4.03;;;3.10;;
15063;SDS011;7631;52.088;5.088;2024-01-06T07:23:56;3.63;;;3.03;;
15063;SDS011;7631;52.088;5.088;2024-01-06T07:26:21;3.70;;;2.73;;
15063;SDS011;7631;52.088;5.088;2024-01-06T07:28:46;3.67;;;3.00;;
15063;SDS011;7631;52.088;5.088;2024-01-06T07:31:11;4.00;;;3.10;;
15063;SDS011;7631;52.088;5.088;2024-01-06T07:33:36;3.50;;;3.20;;
15063;SDS011;7631;52.088;5.088;2024-01-06T07:36:02;3.10;;;2.80;;
15063;SDS011;7631;52.088;5.088;2024-01-06T07:38:27;3.53;;;3.00;;
15063;SDS011;7631;52.088;5.088;2024-01-06T07:40:53;4.20;;;3.33;;
15063;SDS011;7631;52.088;5.088;2024-01-06T07:43:19;2.97;;;2.67;;
15063;SDS011;7631;52.088;5.088;2024-01-06T07:45:44;4.97;;;3.40;;
15063;SDS011;7631;52.088;5.088;2024-01-06T07:48:10;4.67;;;3.57;;
15063;SDS011;7631;52.088;5.088;2024-01-06T07:50:35;4.50;;;4.00;;
15063;SDS011;7631;52.088;5.088;2024-01-06T07:53:00;4.23;;;3.37;;
15063;SDS011;7631;52.088;5.088;2024-01-06T07:55:26;3.60;;;3.30;;
15063;SDS011;7631;52.088;5.088;2024-01-06T07:57:53;3.47;;;3.13;;
15063;SDS011;7631;52.088;5.088;2024-01-06T08:00:19;4.63;;;3.70;;
15063;SDS011;7631;52.088;5.088;2024-01-06T08:02:44;4.87;;;3.17;;
15063;SDS011;7631;52.088;5.088;2024-01-06T08:05:09;5.07;;;3.60;;
15063;SDS011;7631;52.088;5.088;2024-01-06T08:07:34;3.43;;;3.13;;
15063;SDS011;7631;52.088;5.088;2024-01-06T08:10:00;4.07;;;3.50;;
15063;SDS011;7631;52.088;5.088;2024-01-06T08:12:25;3.30;;;2.90;;
15063;SDS011;7631;52.088;5.088;2024-01-06T08:14:51;4.50;;;3.23;;
15063;SDS011;7631;52.088;5.088;2024-01-06T08:17:16;4.57;;;3.50;;
15063;SDS011;7631;52.088;5.088;2024-01-06T08:19:41;3.70;;;3.10;;
15063;SDS011;7631;52.088;5.088;2024-01-06T08:22:07;4.27;;;3.03;;
15063;SDS011;7631;52.088;5.088;2024-01-06T08:24:32;3.47;;;3.17;;
15063;SDS011;7631;52.088;5.088;2024-01-06T08:26:57;3.50;;;3.10;;
15063;SDS011;7631;52.088;5.088;2024-01-06T08:29:22;3.97;;;3.43;;
15063;SDS011;7631;52.088;5.088;2024-01-06T08:31:47;4.70;;;3.30;;
15063;SDS011;7631;52.088;5.088;2024-01-06T08:34:15;5.30;;;3.87;;
15063;SDS011;7631;52.088;5.088;2024-01-06T08:36:40;5.07;;;3.50;;
15063;SDS011;7631;52.088;5.088;2024-01-06T08:39:06;4.33;;;3.30;;
15063;SDS011;7631;52.088;5.088;2024-01-06T08:41:31;4.20;;;3.20;;
15063;SDS011;7631;52.088;5.088;2024-01-06T08:43:56;3.60;;;3.30;;
15063;SDS011;7631;52.088;5.088;2024-01-06T08:46:21;3.67;;;3.20;;
15063;SDS011;7631;52.088;5.088;2024-01-06T08:48:47;3.77;;;3.37;;
15063;SDS011;7631;52.088;5.088;2024-01-06T08:51:12;4.70;;;3.40;;
15063;SDS011;7631;52.088;5.088;2024-01-06T08:53:37;4.47;;;3.00;;
15063;SDS011;7631;52.088;5.088;2024-01-06T08:56:03;3.73;;;3.17;;
15063;SDS011;7631;52.088;5.088;2024-01-06T08:58:28;3.73;;;3.00;;
15063;SDS011;7631;52.088;5.088;2024-01-06T09:00:53;3.97;;;3.30;;
15063;SDS011;7631;52.088;5.088;2024-01-06T09:03:19;3.73;;;3.33;;
15063;SDS011;7631;52.088;5.088;2024-01-06T09:05:50;4.40;;;3.70;;
15063;SDS011;7631;52.088;5.088;2024-01-06T09:08:15;3.93;;;3.20;;
15063;SDS011;7631;52.088;5.088;2024-01-06T09:10:40;4.30;;;3.07;;
15063;SDS011;7631;52.088;5.088;2024-01-06T09:13:06;3.10;;;2.80;;
15063;SDS011;7631;52.088;5.088;2024-01-06T09:15:31;4.57;;;3.53;;
15063;SDS011;7631;52.088;5.088;2024-01-06T09:17:57;3.63;;;3.33;;
15063;SDS011;7631;52.088;5.088;2024-01-06T09:20:22;6.20;;;3.70;;
15063;SDS011;7631;52.088;5.088;2024-01-06T09:22:48;3.93;;;2.90;;
15063;SDS011;7631;52.088;5.088;2024-01-06T09:25:13;3.17;;;2.80;;
15063;SDS011;7631;52.088;5.088;2024-01-06T09:27:39;4.43;;;2.93;;
15063;SDS011;7631;52.088;5.088;2024-01-06T09:30:04;4.13;;;3.73;;
15063;SDS011;7631;52.088;5.088;2024-01-06T09:32:30;4.70;;;3.10;;
15063;SDS011;7631;52.088;5.088;2024-01-06T09:34:56;3.90;;;2.90;;
15063;SDS011;7631;52.088;5.088;2024-01-06T09:37:21;3.87;;;3.47;;
15063;SDS011;7631;52.088;5.088;2024-01-06T09:39:47;4.83;;;3.03;;
15063;SDS011;7631;52.088;5.088;2024-01-06T09:42:12;3.43;;;2.97;;
15063;SDS011;7631;52.088;5.088;2024-01-06T09:44:37;3.47;;;2.67;;
15063;SDS011;7631;52.088;5.088;2024-01-06T09:47:02;3.73;;;3.20;;
15063;SDS011;7631;52.088;5.088;2024-01-06T09:49:29;5.50;;;3.43;;
15063;SDS011;7631;52.088;5.088;2024-01-06T09:51:59;3.67;;;3.13;;
15063;SDS011;7631;52.088;5.088;2024-01-06T09:54:24;4.87;;;2.83;;
15063;SDS011;7631;52.088;5.088;2024-01-06T09:56:53;3.63;;;3.00;;
15063;SDS011;7631;52.088;5.088;2024-01-06T09:59:25;4.00;;;3.27;;
15063;SDS011;7631;52.088;5.088;2024-01-06T10:01:50;4.70;;;2.80;;
15063;SDS011;7631;52.088;5.088;2024-01-06T10:04:17;3.57;;;3.27;;
15063;SDS011;7631;52.088;5.088;2024-01-06T10:06:42;3.40;;;3.03;;
15063;SDS011;7631;52.088;5.088;2024-01-06T10:09:08;3.73;;;3.20;;
15063;SDS011;7631;52.088;5.088;2024-01-06T10:11:35;3.23;;;2.90;;
15063;SDS011;7631;52.088;5.088;2024-01-06T10:14:01;5.27;;;3.60;;
15063;SDS011;7631;52.088;5.088;2024-01-06T10:16:26;3.83;;;3.43;;
15063;SDS011;7631;52.088;5.088;2024-01-06T10:18:53;3.50;;;3.13;;
15063;SDS011;7631;52.088;5.088;2024-01-06T10:21:18;4.43;;;3.40;;
15063;SDS011;7631;52.088;5.088;2024-01-06T10:23:44;4.27;;;3.40;;
15063;SDS011;7631;52.088;5.088;2024-01-06T10:26:14;4.70;;;3.43;;
15063;SDS011;7631;52.088;5.088;2024-01-06T10:28:39;4.63;;;3.47;;
15063;SDS011;7631;52.088;5.088;2024-01-06T10:31:05;4.53;;;3.50;;
15063;SDS011;7631;52.088;5.088;2024-01-06T10:33:32;5.33;;;3.30;;
15063;SDS011;7631;52.088;5.088;2024-01-06T10:35:58;4.17;;;3.40;;
15063;SDS011;7631;52.088;5.088;2024-01-06T10:38:25;4.93;;;3.50;;
15063;SDS011;7631;52.088;5.088;2024-01-06T10:40:57;4.47;;;3.93;;
15063;SDS011;7631;52.088;5.088;2024-01-06T10:43:26;4.73;;;3.60;;
15063;SDS011;7631;52.088;5.088;2024-01-06T10:45:57;7.17;;;3.93;;
15063;SDS011;7631;52.088;5.088;2024-01-06T10:48:24;3.73;;;3.30;;
15063;SDS011;7631;52.088;5.088;2024-01-06T10:50:50;4.17;;;3.77;;
15063;SDS011;7631;52.088;5.088;2024-01-06T10:53:15;4.67;;;3.47;;
15063;SDS011;7631;52.088;5.088;2024-01-06T10:55:42;3.97;;;3.47;;
15063;SDS011;7631;52.088;5.088;2024-01-06T10:58:07;3.50;;;3.20;;
15063;SDS011;7631;52.088;5.088;2024-01-06T11:00:32;4.30;;;3.53;;
15063;SDS011;7631;52.088;5.088;2024-01-06T11:02:58;4.60;;;3.60;;
15063;SDS011;7631;52.088;5.088;2024-01-06T11:05:24;5.80;;;3.83;;
15063;SDS011;7631;52.088;5.088;2024-01-06T11:07:50;3.97;;;3.57;;
15063;SDS011;7631;52.088;5.088;2024-01-06T11:10:17;5.00;;;3.60;;
15063;SDS011;7631;52.088;5.088;2024-01-06T11:12:43;4.00;;;3.43;;
15063;SDS011;7631;52.088;5.088;2024-01-06T11:15:08;4.83;;;3.47;;
15063;SDS011;7631;52.088;5.088;2024-01-06T11:17:53;4.43;;;3.70;;
15063;SDS011;7631;52.088;5.088;2024-01-06T11:20:19;4.43;;;3.20;;
15063;SDS011;7631;52.088;5.088;2024-01-06T11:22:45;3.80;;;3.23;;
15063;SDS011;7631;52.088;5.088;2024-01-06T11:25:14;3.73;;;3.23;;
15063;SDS011;7631;52.088;5.088;2024-01-06T11:27:40;3.60;;;3.30;;
15063;SDS011;7631;52.088;5.088;2024-01-06T11:30:07;4.23;;;3.80;;
15063;SDS011;7631;52.088;5.088;2024-01-06T11:32:33;4.67;;;3.43;;
15063;SDS011;7631;52.088;5.088;2024-01-06T11:35:10;3.90;;;3.50;;
15063;SDS011;7631;52.088;5.088;2024-01-06T11:37:36;3.80;;;3.40;;
15063;SDS011;7631;52.088;5.088;2024-01-06T11:40:02;4.27;;;3.20;;
15063;SDS011;7631;52.088;5.088;2024-01-06T11:42:32;4.00;;;3.40;;
15063;SDS011;7631;52.088;5.088;2024-01-06T11:44:57;4.23;;;3.67;;
15063;SDS011;7631;52.088;5.088;2024-01-06T11:47:26;6.27;;;4.03;;
15063;SDS011;7631;52.088;5.088;2024-01-06T11:49:54;4.70;;;3.80;;
15063;SDS011;7631;52.088;5.088;2024-01-06T11:52:20;3.53;;;3.20;;
15063;SDS011;7631;52.088;5.088;2024-01-06T11:54:45;4.73;;;3.57;;
15063;SDS011;7631;52.088;5.088;2024-01-06T11:57:11;4.77;;;3.73;;
15063;SDS011;7631;52.088;5.088;2024-01-06T11:59:36;3.50;;;3.20;;
15063;SDS011;7631;52.088;5.088;2024-01-06T12:02:01;3.97;;;3.53;;
15063;SDS011;7631;52.088;5.088;2024-01-06T12:04:26;5.47;;;3.80;;
15063;SDS011;7631;52.088;5.088;2024-01-06T12:06:54;4.67;;;3.60;;
15063;SDS011;7631;52.088;5.088;2024-01-06T12:09:29;3.97;;;3.57;;
15063;SDS011;7631;52.088;5.088;2024-01-06T12:12:01;4.10;;;3.27;;
15063;SDS011;7631;52.088;5.088;2024-01-06T12:14:26;5.40;;;4.13;;
15063;SDS011;7631;52.088;5.088;2024-01-06T12:16:51;4.40;;;3.87;;
15063;SDS011;7631;52.088;5.088;2024-01-06T12:19:18;4.53;;;3.40;;
15063;SDS011;7631;52.088;5.088;2024-01-06T12:21:43;5.10;;;3.90;;
15063;SDS011;7631;52.088;5.088;2024-01-06T12:24:18;3.80;;;3.37;;
15063;SDS011;7631;52.088;5.088;2024-01-06T12:26:45;4.37;;;3.73;;
15063;SDS011;7631;52.088;5.088;2024-01-06T12:29:11;3.50;;;3.20;;
15063;SDS011;7631;52.088;5.088;2024-01-06T12:31:37;3.80;;;3.33;;
15063;SDS011;7631;52.088;5.088;2024-01-06T12:34:03;3.73;;;3.37;;
15063;SDS011;7631;52.088;5.088;2024-01-06T12:36:29;5.47;;;3.90;;
15063;SDS011;7631;52.088;5.088;2024-01-06T12:38:55;4.47;;;3.67;;
15063;SDS011;7631;52.088;5.088;2024-01-06T12:41:23;4.50;;;3.97;;
15063;SDS011;7631;52.088;5.088;2024-01-06T12:43:48;3.80;;;3.37;;
15063;SDS011;7631;52.088;5.088;2024-01-06T12:46:14;5.03;;;3.87;;
15063;SDS011;7631;52.088;5.088;2024-01-06T12:48:39;6.10;;;3.57;;
15063;SDS011;7631;52.088;5.088;2024-01-06T12:51:05;4.33;;;3.70;;
15063;SDS011;7631;52.088;5.088;2024-01-06T12:53:30;4.20;;;3.80;;
15063;SDS011;7631;52.088;5.088;2024-01-06T12:55:55;4.17;;;3.60;;
15063;SDS011;7631;52.088;5.088;2024-01-06T12:58:20;4.00;;;3.60;;
15063;SDS011;7631;52.088;5.088;2024-01-06T13:00:46;4.90;;;3.60;;
15063;SDS011;7631;52.088;5.088;2024-01-06T13:03:11;4.43;;;3.90;;
15063;SDS011;7631;52.088;5.088;2024-01-06T13:05:36;5.13;;;4.07;;
15063;SDS011;7631;52.088;5.088;2024-01-06T13:08:02;4.97;;;3.83;;
15063;SDS011;7631;52.088;5.088;2024-01-06T13:10:27;4.37;;;3.97;;
15063;SDS011;7631;52.088;5.088;2024-01-06T13:12:52;4.47;;;3.93;;
15063;SDS011;7631;52.088;5.088;2024-01-06T13:15:18;4.17;;;3.73;;
15063;SDS011;7631;52.088;5.088;2024-01-06T13:17:43;4.93;;;4.17;;
15063;SDS011;7631;52.088;5.088;2024-01-06T13:20:08;4.70;;;3.90;;
15063;SDS011;7631;52.088;5.088;2024-01-06T13:22:34;4.53;;;3.80;;
15063;SDS011;7631;52.088;5.088;2024-01-06T13:24:59;6.27;;;4.23;;
15063;SDS011;7631;52.088;5.088;2024-01-06T13:27:24;4.70;;;4.00;;
15063;SDS011;7631;52.088;5.088;2024-01-06T13:29:52;5.77;;;4.33;;
15063;SDS011;7631;52.088;5.088;2024-01-06T13:32:17;4.57;;;3.63;;
15063;SDS011;7631;52.088;5.088;2024-01-06T13:34:44;5.80;;;3.67;;
15063;SDS011;7631;52.088;5.088;2024-01-06T13:37:09;4.57;;;4.17;;
15063;SDS011;7631;52.088;5.088;2024-01-06T13:39:34;5.23;;;4.20;;
15063;SDS011;7631;52.088;5.088;2024-01-06T13:42:00;4.50;;;4.10;;
15063;SDS011;7631;52.088;5.088;2024-01-06T13:44:28;4.43;;;3.97;;
15063;SDS011;7631;52.088;5.088;2024-01-06T13:46:53;6.33;;;4.67;;
15063;SDS011;7631;52.088;5.088;2024-01-06T13:49:19;4.43;;;4.03;;
15063;SDS011;7631;52.088;5.088;2024-01-06T13:51:44;4.87;;;4.37;;
15063;SDS011;7631;52.088;5.088;2024-01-06T13:54:10;4.97;;;4.07;;
15063;SDS011;7631;52.088;5.088;2024-01-06T13:56:35;5.90;;;4.40;;
15063;SDS011;7631;52.088;5.088;2024-01-06T13:59:02;7.70;;;4.83;;
15063;SDS011;7631;52.088;5.088;2024-01-06T14:01:27;4.07;;;3.67;;
15063;SDS011;7631;52.088;5.088;2024-01-06T14:03:52;5.27;;;4.00;;
15063;SDS011;7631;52.088;5.088;2024-01-06T14:06:26;5.17;;;4.67;;
15063;SDS011;7631;52.088;5.088;2024-01-06T14:08:54;4.83;;;4.30;;
15063;SDS011;7631;52.088;5.088;2024-01-06T14:11:20;6.83;;;4.33;;
15063;SDS011;7631;52.088;5.088;2024-01-06T14:13:45;5.90;;;4.40;;
15063;SDS011;7631;52.088;5.088;2024-01-06T14:16:13;4.63;;;4.10;;
15063;SDS011;7631;52.088;5.088;2024-01-06T14:18:39;4.87;;;4.03;;
15063;SDS011;7631;52.088;5.088;2024-01-06T14:21:04;7.00;;;4.57;;
15063;SDS011;7631;52.088;5.088;2024-01-06T14:23:29;5.73;;;4.67;;
15063;SDS011;7631;52.088;5.088;2024-01-06T14:25:57;4.63;;;4.23;;
15063;SDS011;7631;52.088;5.088;2024-01-06T14:28:22;5.40;;;4.53;;
15063;SDS011;7631;52.088;5.088;2024-01-06T14:30:48;5.37;;;4.50;;
15063;SDS011;7631;52.088;5.088;2024-01-06T14:33:13;5.97;;;4.77;;
15063;SDS011;7631;52.088;5.088;2024-01-06T14:35:38;5.00;;;4.50;;
15063;SDS011;7631;52.088;5.088;2024-01-06T14:38:07;5.60;;;4.70;;
15063;SDS011;7631;52.088;5.088;2024-01-06T14:40:32;4.70;;;4.30;;
15063;SDS011;7631;52.088;5.088;2024-01-06T14:42:57;5.10;;;4.57;;
15063;SDS011;7631;52.088;5.088;2024-01-06T14:45:23;4.40;;;3.63;;
15063;SDS011;7631;52.088;5.088;2024-01-06T14:47:48;4.87;;;4.37;;
15063;SDS011;7631;52.088;5.088;2024-01-06T14:50:16;5.57;;;4.43;;